Share

Westview, KY (40178)

Wandering Meadows (KKYVINEG3) Elev 719 ft | 37.81 °N, 86.03 °W | Change Station

Current weather conditions updated 37 seconds ago

Clear
Clear
68.5 °F
Feels Like 68.5 °F
N
1.7
Wind Variable Wind from South
Sunrise 6:06 AM
Sunset 7:23 PM
Moon Waning Gibbous

Tomorrow is forecast to be nearly the same temperature as today.

Pressure 30.20 in
Visibility 10.0 miles
Clouds Clear
Dew Point 46 °F
Humidity 44%
Rainfall 0.00 in
Snow Depth Not available.
UV 3 out of 16
Pollen 9.30 out of 12
Ozone Good
PM2.5 Good
Flu Activity Sporadic
METAR KFTK 182158Z AUTO 35005KT 10SM CLR 21/02 A3019 RMK AO2 SLP225 T02120021

More Conditions Fewer Conditions

Pressure 30.20 in
Visibility 10.0 miles
Clouds Clear
Dew Point 46 °F
Humidity 44%
Rainfall 0.00 in
Snow Depth Not available.
UV 3 out of 16
Pollen 9.30 out of 12
Ozone Good
PM2.5 Good
Flu Activity Sporadic
METAR KFTK 182158Z AUTO 35005KT 10SM CLR 21/02 A3019 RMK AO2 SLP225 T02120021

More Conditions Fewer Conditions

10-Day Weather Forecast

Almanac

Astronomy

Apr. 18, 2014 Rise Set
Actual Time 6:06 AM CDT 7:23 PM CDT
Civil Twilight 5:39 AM CDT 7:51 PM CDT
Nautical Twilight 5:06 AM CDT 8:23 PM CDT
Astronomical Twilight 4:32 AM CDT 8:57 PM CDT
Moon 11:06 PM CDT 8:30 AM CDT
Length of Visible Light 14h 11m
Length of Day
13h 17m
Tomorrow will be 2m 16s longer.
Waning Gibbous, 85% of the Moon is Illuminated
Today
Waning Gibbous
Apr 22
Last Quarter
Apr 29
New
May 6
First Quarter
May 14
Full

Today's Extremes

State Highs State Lows

Community

  • Spring Chickadee
    Spring Chickadee
  • What's for Lunch?
    What's for Lunch?
  • SUNRISE THROUGH THE TREES.
    SUNRISE THROUGH THE TREES.
  • Dog Wood Blossoms
    Dog Wood Blossoms
  • Morning Light
    Morning Light

WunderPhotos

Upload Photos

1,702,528 photos uploaded!

WunderBlogs® & News

Nearby

Air Quality

  Air Quality AQ Index Pollutant
Yesterday Good
PM10
Yesterday Good
OZONE
Current Good
OZONE
Current Good
PM2.5
Friday Moderate
PM2.5
Friday Good
OZONE
Saturday Moderate
PM2.5
Saturday Good
OZONE
Sunday Moderate
PM2.5
Sunday Good
OZONE
Monday Moderate
PM2.5
Monday Good
OZONE
Tuesday Moderate
PM2.5
Tuesday Good
OZONE

Snow Depth

Station Depth Elevation
No new snow has been reported.

Coastal Water Temperatures

Place Temperature
No Stations Reporting

Earthquake Activity

City Distance Mag. Time & Date
No recent earthquake activity has been reported nearby.
Minimum magnitude displayed is 2.5.

Nearby Weather Stations

Station Location Temp. Heat Index Dew Point Humidity Wind Precip. Elev Updated Type
Wandering Meadows, Vine Grove, KY 68.5 °F - 46 °F 44% South  at  1.7 mph - / hr 719 ft 6:49 PM EDT Normal
Lavista Estates, Rineyville, KY 70.3 °F 77 °F 44 °F 39% NNW  at  3.2 mph - / hr 801 ft 6:39 PM EDT Normal

Show More Stations Show Fewer Stations

What do you think?

We're not finished. Please let us know what you like, what you don't like, and what you are still missing.